メインページ
METAR-TAF:

METAR-TAF

空港 :

クィーンアリア国際空港, ヨルダン

緯度: 31-40N, 経度: 035-58E, 海抜: 721m

現時点の気象観測

当レポートは53分前の22:00(UTC)に作成
の風 13kt
気温 11°C
湿度 66%
気圧 1022 hPa
視程: 7000m

METAR: OJAI 152200Z 09013KT 7000 NSC 11/05 Q1022 NOSIG

時間: 00:53 (22:53 UTC)

予報

当レポートは5時間58分前の16:55(UTC)に作成
予報は15日の 18時(UTC)から 16日の 24時(UTC)まで有効
の風 12kt
視程: 7000m
確率 30%
16日の 00時(UTC)から 16日の 06時(UTC)まで
視程: 4000m
16日の 06時(UTC)から 16日の 08時(UTC)まで徐々に
東/南東の風 16kt
視程: 5000m
高度3000ftの雲はほとんどない
風塵
確率 40%
16日の 12時(UTC)から 16日の 24時(UTC)まで
視程: 3000m
高度3000ftの雲はほとんどない, 塔状積雲.
高度3500ftの千切れ雲あり
弱いにわか雨, 広範な塵

TAF: OJAI 151655Z 1518/1624 10012KT 7000 NSC PROB30 1600/1606 4000 BR BECMG 1606/1608 12016KT 5000 BLDU FEW030 PROB40 1612/1624 3000 -SHRA DU FEW030TCU BKN035

4,000以上の空港の気象観測と天気予報(METAR報とTAF報)

利用可能な観測所は地図上に黄色い丸と赤い丸で示す。

丸の上にカーソルを重ねると観測所名を参照できる。

次にクリックすると気象観測と天気予報を参照できる。

マップの切り替え:黒色「×」印の緑ボタンをクリックして拡大、「-」印の緑ボタンをクリックして縮小、緑色の三角印をクリックして隣りの地図に切り替え


METAR-TAF: